sensor_id;sensor_type;location;lat;lon;timestamp;temperature;humidity
26107;DHT22;13866;50.748;12.630;2023-09-19T00:00:19;16.70;99.90
26107;DHT22;13866;50.748;12.630;2023-09-19T00:02:53;16.70;99.90
26107;DHT22;13866;50.748;12.630;2023-09-19T00:05:19;16.70;99.90
26107;DHT22;13866;50.748;12.630;2023-09-19T00:07:52;16.70;99.90
26107;DHT22;13866;50.748;12.630;2023-09-19T00:10:21;16.60;99.90
26107;DHT22;13866;50.748;12.630;2023-09-19T00:12:47;16.70;99.90
26107;DHT22;13866;50.748;12.630;2023-09-19T00:15:13;16.70;99.90
26107;DHT22;13866;50.748;12.630;2023-09-19T00:17:43;16.70;99.90
26107;DHT22;13866;50.748;12.630;2023-09-19T00:20:09;16.70;99.90
26107;DHT22;13866;50.748;12.630;2023-09-19T00:22:41;16.70;99.90
26107;DHT22;13866;50.748;12.630;2023-09-19T00:25:10;16.70;99.90
26107;DHT22;13866;50.748;12.630;2023-09-19T00:27:38;16.70;99.90
26107;DHT22;13866;50.748;12.630;2023-09-19T00:30:08;16.70;99.90
26107;DHT22;13866;50.748;12.630;2023-09-19T00:32:40;16.70;99.90
26107;DHT22;13866;50.748;12.630;2023-09-19T00:35:06;16.80;99.90
26107;DHT22;13866;50.748;12.630;2023-09-19T00:37:33;16.70;99.90
26107;DHT22;13866;50.748;12.630;2023-09-19T00:39:59;16.80;99.90
26107;DHT22;13866;50.748;12.630;2023-09-19T00:42:25;16.70;99.90
26107;DHT22;13866;50.748;12.630;2023-09-19T00:44:51;16.70;99.90
26107;DHT22;13866;50.748;12.630;2023-09-19T00:47:17;16.70;99.90
26107;DHT22;13866;50.748;12.630;2023-09-19T00:49:46;16.70;99.90
26107;DHT22;13866;50.748;12.630;2023-09-19T00:52:18;16.60;99.90
26107;DHT22;13866;50.748;12.630;2023-09-19T00:54:48;16.60;99.90
26107;DHT22;13866;50.748;12.630;2023-09-19T00:57:14;16.60;99.90
26107;DHT22;13866;50.748;12.630;2023-09-19T00:59:41;16.60;99.90
26107;DHT22;13866;50.748;12.630;2023-09-19T01:02:07;16.60;99.90
26107;DHT22;13866;50.748;12.630;2023-09-19T01:04:34;16.70;99.90
26107;DHT22;13866;50.748;12.630;2023-09-19T01:06:59;16.60;99.90
26107;DHT22;13866;50.748;12.630;2023-09-19T01:09:25;16.60;99.90
26107;DHT22;13866;50.748;12.630;2023-09-19T01:11:54;16.60;99.90
26107;DHT22;13866;50.748;12.630;2023-09-19T01:14:31;16.60;99.90
26107;DHT22;13866;50.748;12.630;2023-09-19T01:17:27;16.60;99.90
26107;DHT22;13866;50.748;12.630;2023-09-19T01:20:11;16.50;99.90
26107;DHT22;13866;50.748;12.630;2023-09-19T01:26:04;16.50;99.90
26107;DHT22;13866;50.748;12.630;2023-09-19T01:28:51;16.50;99.90
26107;DHT22;13866;50.748;12.630;2023-09-19T01:31:20;16.50;99.90
26107;DHT22;13866;50.748;12.630;2023-09-19T01:34:00;16.40;99.90
26107;DHT22;13866;50.748;12.630;2023-09-19T01:36:27;16.40;99.90
26107;DHT22;13866;50.748;12.630;2023-09-19T01:38:54;16.40;99.90
26107;DHT22;13866;50.748;12.630;2023-09-19T01:41:26;16.40;99.90
26107;DHT22;13866;50.748;12.630;2023-09-19T01:43:53;16.40;99.90
26107;DHT22;13866;50.748;12.630;2023-09-19T01:46:24;16.30;99.90
26107;DHT22;13866;50.748;12.630;2023-09-19T01:51:28;16.30;99.90
26107;DHT22;13866;50.748;12.630;2023-09-19T01:54:03;16.30;99.90
26107;DHT22;13866;50.748;12.630;2023-09-19T01:56:37;16.30;99.90
26107;DHT22;13866;50.748;12.630;2023-09-19T01:59:21;16.20;99.90
26107;DHT22;13866;50.748;12.630;2023-09-19T02:01:48;16.20;99.90
26107;DHT22;13866;50.748;12.630;2023-09-19T02:04:15;16.20;99.90
26107;DHT22;13866;50.748;12.630;2023-09-19T02:06:41;16.20;99.90
26107;DHT22;13866;50.748;12.630;2023-09-19T02:09:07;16.20;99.90
26107;DHT22;13866;50.748;12.630;2023-09-19T02:11:34;16.20;99.90
26107;DHT22;13866;50.748;12.630;2023-09-19T02:13:59;16.20;99.90
26107;DHT22;13866;50.748;12.630;2023-09-19T02:16:25;16.20;99.90
26107;DHT22;13866;50.748;12.630;2023-09-19T02:18:51;16.20;99.90
26107;DHT22;13866;50.748;12.630;2023-09-19T02:21:17;16.10;99.90
26107;DHT22;13866;50.748;12.630;2023-09-19T02:23:46;16.10;99.90
26107;DHT22;13866;50.748;12.630;2023-09-19T02:26:13;16.10;99.90
26107;DHT22;13866;50.748;12.630;2023-09-19T02:28:39;16.10;99.90
26107;DHT22;13866;50.748;12.630;2023-09-19T02:31:04;16.00;99.90
26107;DHT22;13866;50.748;12.630;2023-09-19T02:33:33;16.00;99.90
26107;DHT22;13866;50.748;12.630;2023-09-19T02:35:59;16.00;99.90
26107;DHT22;13866;50.748;12.630;2023-09-19T02:38:25;16.00;99.90
26107;DHT22;13866;50.748;12.630;2023-09-19T02:40:52;15.90;99.90
26107;DHT22;13866;50.748;12.630;2023-09-19T02:43:17;15.90;99.90
26107;DHT22;13866;50.748;12.630;2023-09-19T02:45:45;15.90;99.90
26107;DHT22;13866;50.748;12.630;2023-09-19T02:48:11;15.90;99.90
26107;DHT22;13866;50.748;12.630;2023-09-19T02:50:37;16.00;99.90
26107;DHT22;13866;50.748;12.630;2023-09-19T02:53:05;16.00;99.90
26107;DHT22;13866;50.748;12.630;2023-09-19T02:55:31;16.00;99.90
26107;DHT22;13866;50.748;12.630;2023-09-19T02:57:57;16.00;99.90
26107;DHT22;13866;50.748;12.630;2023-09-19T03:00:23;16.00;99.90
26107;DHT22;13866;50.748;12.630;2023-09-19T03:02:50;15.90;99.90
26107;DHT22;13866;50.748;12.630;2023-09-19T03:05:15;16.00;99.90
26107;DHT22;13866;50.748;12.630;2023-09-19T03:07:41;16.00;99.90
26107;DHT22;13866;50.748;12.630;2023-09-19T03:10:08;16.00;99.90
26107;DHT22;13866;50.748;12.630;2023-09-19T03:12:34;15.90;99.90
26107;DHT22;13866;50.748;12.630;2023-09-19T03:15:00;15.90;99.90
26107;DHT22;13866;50.748;12.630;2023-09-19T03:17:26;15.90;99.90
26107;DHT22;13866;50.748;12.630;2023-09-19T03:19:52;15.90;99.90
26107;DHT22;13866;50.748;12.630;2023-09-19T03:22:19;15.90;99.90
26107;DHT22;13866;50.748;12.630;2023-09-19T03:24:44;15.80;99.90
26107;DHT22;13866;50.748;12.630;2023-09-19T03:27:11;15.80;99.90
26107;DHT22;13866;50.748;12.630;2023-09-19T03:29:39;15.80;99.90
26107;DHT22;13866;50.748;12.630;2023-09-19T03:32:05;15.80;99.90
26107;DHT22;13866;50.748;12.630;2023-09-19T03:34:30;15.80;99.90
26107;DHT22;13866;50.748;12.630;2023-09-19T03:36:56;15.80;99.90
26107;DHT22;13866;50.748;12.630;2023-09-19T03:39:21;15.70;99.90
26107;DHT22;13866;50.748;12.630;2023-09-19T03:41:47;15.70;99.90
26107;DHT22;13866;50.748;12.630;2023-09-19T03:44:13;15.60;99.90
26107;DHT22;13866;50.748;12.630;2023-09-19T03:46:38;15.70;99.90
26107;DHT22;13866;50.748;12.630;2023-09-19T03:49:04;15.70;99.90
26107;DHT22;13866;50.748;12.630;2023-09-19T03:51:29;15.70;99.90
26107;DHT22;13866;50.748;12.630;2023-09-19T03:53:55;15.60;99.90
26107;DHT22;13866;50.748;12.630;2023-09-19T03:56:21;15.60;99.90
26107;DHT22;13866;50.748;12.630;2023-09-19T03:58:47;15.60;99.90
26107;DHT22;13866;50.748;12.630;2023-09-19T04:01:12;15.60;99.90
26107;DHT22;13866;50.748;12.630;2023-09-19T04:03:38;15.50;99.90
26107;DHT22;13866;50.748;12.630;2023-09-19T04:06:16;15.60;99.90
26107;DHT22;13866;50.748;12.630;2023-09-19T04:08:43;15.50;99.90
26107;DHT22;13866;50.748;12.630;2023-09-19T04:11:09;15.50;99.90
26107;DHT22;13866;50.748;12.630;2023-09-19T04:13:36;15.50;99.90
26107;DHT22;13866;50.748;12.630;2023-09-19T04:16:02;15.60;99.90
26107;DHT22;13866;50.748;12.630;2023-09-19T04:18:29;15.50;99.90
26107;DHT22;13866;50.748;12.630;2023-09-19T04:20:58;15.50;99.90
26107;DHT22;13866;50.748;12.630;2023-09-19T04:23:23;15.50;99.90
26107;DHT22;13866;50.748;12.630;2023-09-19T04:25:49;15.50;99.90
26107;DHT22;13866;50.748;12.630;2023-09-19T04:28:15;15.60;99.90
26107;DHT22;13866;50.748;12.630;2023-09-19T04:30:41;15.50;99.90
26107;DHT22;13866;50.748;12.630;2023-09-19T04:33:07;15.50;99.90
26107;DHT22;13866;50.748;12.630;2023-09-19T04:35:33;15.50;99.90
26107;DHT22;13866;50.748;12.630;2023-09-19T04:37:59;15.50;99.90
26107;DHT22;13866;50.748;12.630;2023-09-19T04:40:24;15.50;99.90
26107;DHT22;13866;50.748;12.630;2023-09-19T04:42:57;15.50;99.90
26107;DHT22;13866;50.748;12.630;2023-09-19T04:45:27;15.50;99.90
26107;DHT22;13866;50.748;12.630;2023-09-19T04:47:53;15.50;99.90
26107;DHT22;13866;50.748;12.630;2023-09-19T04:50:19;15.50;99.90
26107;DHT22;13866;50.748;12.630;2023-09-19T04:52:49;15.50;99.90
26107;DHT22;13866;50.748;12.630;2023-09-19T04:55:16;15.50;99.90
26107;DHT22;13866;50.748;12.630;2023-09-19T04:57:45;15.50;99.90
26107;DHT22;13866;50.748;12.630;2023-09-19T05:00:13;15.50;99.90
26107;DHT22;13866;50.748;12.630;2023-09-19T05:02:40;15.50;99.90
26107;DHT22;13866;50.748;12.630;2023-09-19T05:05:07;15.50;99.90
26107;DHT22;13866;50.748;12.630;2023-09-19T05:07:33;15.50;99.90
26107;DHT22;13866;50.748;12.630;2023-09-19T05:09:59;15.50;99.90
26107;DHT22;13866;50.748;12.630;2023-09-19T05:12:26;15.40;99.90
26107;DHT22;13866;50.748;12.630;2023-09-19T05:14:52;15.50;99.90
26107;DHT22;13866;50.748;12.630;2023-09-19T05:17:18;15.40;99.90
26107;DHT22;13866;50.748;12.630;2023-09-19T05:19:44;15.50;99.90
26107;DHT22;13866;50.748;12.630;2023-09-19T05:22:11;15.50;99.90
26107;DHT22;13866;50.748;12.630;2023-09-19T05:24:37;15.50;99.90
26107;DHT22;13866;50.748;12.630;2023-09-19T05:27:04;15.50;99.90
26107;DHT22;13866;50.748;12.630;2023-09-19T05:29:30;15.60;99.90
26107;DHT22;13866;50.748;12.630;2023-09-19T05:31:55;15.60;99.90
26107;DHT22;13866;50.748;12.630;2023-09-19T05:34:21;15.60;99.90
26107;DHT22;13866;50.748;12.630;2023-09-19T05:36:46;15.70;99.90
26107;DHT22;13866;50.748;12.630;2023-09-19T05:39:14;15.70;99.90
26107;DHT22;13866;50.748;12.630;2023-09-19T05:41:39;15.70;99.90
26107;DHT22;13866;50.748;12.630;2023-09-19T05:44:05;15.70;99.90
26107;DHT22;13866;50.748;12.630;2023-09-19T05:46:32;15.70;99.90
26107;DHT22;13866;50.748;12.630;2023-09-19T05:48:57;15.70;99.90
26107;DHT22;13866;50.748;12.630;2023-09-19T05:51:23;15.70;99.90
26107;DHT22;13866;50.748;12.630;2023-09-19T05:53:49;15.80;99.90
26107;DHT22;13866;50.748;12.630;2023-09-19T05:56:15;15.90;99.90
26107;DHT22;13866;50.748;12.630;2023-09-19T05:58:42;16.00;99.90
26107;DHT22;13866;50.748;12.630;2023-09-19T06:01:09;16.00;99.90
26107;DHT22;13866;50.748;12.630;2023-09-19T06:03:35;16.10;99.90
26107;DHT22;13866;50.748;12.630;2023-09-19T06:06:01;16.10;99.90
26107;DHT22;13866;50.748;12.630;2023-09-19T06:08:27;16.20;99.90
26107;DHT22;13866;50.748;12.630;2023-09-19T06:10:53;16.20;99.90
26107;DHT22;13866;50.748;12.630;2023-09-19T06:13:19;16.20;99.90
26107;DHT22;13866;50.748;12.630;2023-09-19T06:15:45;16.20;99.90
26107;DHT22;13866;50.748;12.630;2023-09-19T06:18:12;16.30;99.90
26107;DHT22;13866;50.748;12.630;2023-09-19T06:20:47;16.20;99.90
26107;DHT22;13866;50.748;12.630;2023-09-19T06:23:13;16.30;99.90
26107;DHT22;13866;50.748;12.630;2023-09-19T06:25:38;16.20;99.90
26107;DHT22;13866;50.748;12.630;2023-09-19T06:28:04;16.30;99.90
26107;DHT22;13866;50.748;12.630;2023-09-19T06:30:31;16.30;99.90
26107;DHT22;13866;50.748;12.630;2023-09-19T06:32:58;16.30;99.90
26107;DHT22;13866;50.748;12.630;2023-09-19T06:35:24;16.30;99.90
26107;DHT22;13866;50.748;12.630;2023-09-19T06:37:51;16.30;99.90
26107;DHT22;13866;50.748;12.630;2023-09-19T06:40:18;16.50;99.90
26107;DHT22;13866;50.748;12.630;2023-09-19T06:42:50;16.60;99.90
26107;DHT22;13866;50.748;12.630;2023-09-19T06:45:16;16.70;99.90
26107;DHT22;13866;50.748;12.630;2023-09-19T06:47:45;16.70;99.90
26107;DHT22;13866;50.748;12.630;2023-09-19T06:50:14;16.70;99.90
26107;DHT22;13866;50.748;12.630;2023-09-19T06:52:41;16.80;99.90
26107;DHT22;13866;50.748;12.630;2023-09-19T06:55:07;16.90;99.90
26107;DHT22;13866;50.748;12.630;2023-09-19T06:57:33;17.10;99.90
26107;DHT22;13866;50.748;12.630;2023-09-19T06:59:59;17.40;99.90
26107;DHT22;13866;50.748;12.630;2023-09-19T07:02:27;17.60;99.90
26107;DHT22;13866;50.748;12.630;2023-09-19T07:04:52;17.70;99.90
26107;DHT22;13866;50.748;12.630;2023-09-19T07:07:18;17.60;99.90
26107;DHT22;13866;50.748;12.630;2023-09-19T07:09:43;17.50;99.90
26107;DHT22;13866;50.748;12.630;2023-09-19T07:12:09;17.40;99.90
26107;DHT22;13866;50.748;12.630;2023-09-19T07:14:34;17.40;99.90
26107;DHT22;13866;50.748;12.630;2023-09-19T07:17:00;17.40;99.90
26107;DHT22;13866;50.748;12.630;2023-09-19T07:19:26;17.50;99.90
26107;DHT22;13866;50.748;12.630;2023-09-19T07:21:54;17.70;99.90
26107;DHT22;13866;50.748;12.630;2023-09-19T07:24:19;17.90;99.90
26107;DHT22;13866;50.748;12.630;2023-09-19T07:26:47;18.00;99.90
26107;DHT22;13866;50.748;12.630;2023-09-19T07:29:13;17.90;99.90
26107;DHT22;13866;50.748;12.630;2023-09-19T07:31:38;18.00;99.90
26107;DHT22;13866;50.748;12.630;2023-09-19T07:34:04;18.30;99.90
26107;DHT22;13866;50.748;12.630;2023-09-19T07:36:33;18.60;99.90
26107;DHT22;13866;50.748;12.630;2023-09-19T07:38:59;18.90;99.90
26107;DHT22;13866;50.748;12.630;2023-09-19T07:41:25;19.10;99.90
26107;DHT22;13866;50.748;12.630;2023-09-19T07:43:51;19.00;99.90
26107;DHT22;13866;50.748;12.630;2023-09-19T07:46:17;18.90;99.90
26107;DHT22;13866;50.748;12.630;2023-09-19T07:48:42;19.10;99.90
26107;DHT22;13866;50.748;12.630;2023-09-19T07:51:13;19.20;98.40
26107;DHT22;13866;50.748;12.630;2023-09-19T07:53:41;19.40;94.10
26107;DHT22;13866;50.748;12.630;2023-09-19T07:56:08;19.50;73.80
26107;DHT22;13866;50.748;12.630;2023-09-19T07:58:35;19.30;68.30
26107;DHT22;13866;50.748;12.630;2023-09-19T08:01:06;19.40;69.80
26107;DHT22;13866;50.748;12.630;2023-09-19T08:03:33;19.40;72.10
26107;DHT22;13866;50.748;12.630;2023-09-19T08:06:00;19.20;70.80
26107;DHT22;13866;50.748;12.630;2023-09-19T08:08:26;19.00;62.80
26107;DHT22;13866;50.748;12.630;2023-09-19T08:10:56;19.10;70.00
26107;DHT22;13866;50.748;12.630;2023-09-19T08:13:25;19.00;68.50
26107;DHT22;13866;50.748;12.630;2023-09-19T08:15:51;18.80;59.40
26107;DHT22;13866;50.748;12.630;2023-09-19T08:18:18;18.70;60.00
26107;DHT22;13866;50.748;12.630;2023-09-19T08:20:49;18.70;63.30
26107;DHT22;13866;50.748;12.630;2023-09-19T08:23:15;18.70;62.80
26107;DHT22;13866;50.748;12.630;2023-09-19T08:25:43;18.80;57.80
26107;DHT22;13866;50.748;12.630;2023-09-19T08:28:09;18.60;60.80
26107;DHT22;13866;50.748;12.630;2023-09-19T08:30:37;18.60;57.60
26107;DHT22;13866;50.748;12.630;2023-09-19T08:33:06;18.50;57.50
26107;DHT22;13866;50.748;12.630;2023-09-19T08:35:32;18.60;61.60
26107;DHT22;13866;50.748;12.630;2023-09-19T08:37:58;18.60;58.60
26107;DHT22;13866;50.748;12.630;2023-09-19T08:40:26;18.80;60.30
26107;DHT22;13866;50.748;12.630;2023-09-19T08:42:56;18.80;59.60
26107;DHT22;13866;50.748;12.630;2023-09-19T08:45:23;18.70;59.50
26107;DHT22;13866;50.748;12.630;2023-09-19T08:48:23;18.80;63.90
26107;DHT22;13866;50.748;12.630;2023-09-19T08:50:57;18.90;64.10
26107;DHT22;13866;50.748;12.630;2023-09-19T08:54:08;18.80;59.30
26107;DHT22;13866;50.748;12.630;2023-09-19T08:56:35;18.70;55.80
26107;DHT22;13866;50.748;12.630;2023-09-19T08:59:05;18.90;65.50
26107;DHT22;13866;50.748;12.630;2023-09-19T09:01:35;18.80;54.60
26107;DHT22;13866;50.748;12.630;2023-09-19T09:04:01;18.70;49.00
26107;DHT22;13866;50.748;12.630;2023-09-19T09:06:28;18.60;48.50
26107;DHT22;13866;50.748;12.630;2023-09-19T09:08:54;18.40;47.50
26107;DHT22;13866;50.748;12.630;2023-09-19T09:11:20;18.40;46.30
26107;DHT22;13866;50.748;12.630;2023-09-19T09:13:47;18.30;45.70
26107;DHT22;13866;50.748;12.630;2023-09-19T09:16:14;18.30;48.20
26107;DHT22;13866;50.748;12.630;2023-09-19T09:18:42;18.90;46.90
26107;DHT22;13866;50.748;12.630;2023-09-19T09:21:09;19.60;43.80
26107;DHT22;13866;50.748;12.630;2023-09-19T09:23:35;20.00;39.40
26107;DHT22;13866;50.748;12.630;2023-09-19T09:26:00;20.00;35.40
26107;DHT22;13866;50.748;12.630;2023-09-19T09:28:32;20.20;32.20
26107;DHT22;13866;50.748;12.630;2023-09-19T09:30:59;20.60;28.30
26107;DHT22;13866;50.748;12.630;2023-09-19T09:33:24;20.20;25.60
26107;DHT22;13866;50.748;12.630;2023-09-19T09:35:52;20.00;24.10
26107;DHT22;13866;50.748;12.630;2023-09-19T09:38:25;19.80;22.10
26107;DHT22;13866;50.748;12.630;2023-09-19T09:40:54;19.60;22.70
26107;DHT22;13866;50.748;12.630;2023-09-19T09:43:36;19.50;24.40
26107;DHT22;13866;50.748;12.630;2023-09-19T09:46:07;19.20;25.00
26107;DHT22;13866;50.748;12.630;2023-09-19T09:48:57;19.50;25.10
26107;DHT22;13866;50.748;12.630;2023-09-19T09:51:45;19.80;24.40
26107;DHT22;13866;50.748;12.630;2023-09-19T09:54:23;20.40;22.20
26107;DHT22;13866;50.748;12.630;2023-09-19T09:59:22;21.20;18.20
26107;DHT22;13866;50.748;12.630;2023-09-19T10:01:52;21.30;15.20
26107;DHT22;13866;50.748;12.630;2023-09-19T10:04:28;20.90;14.00
26107;DHT22;13866;50.748;12.630;2023-09-19T10:06:57;20.90;13.70
26107;DHT22;13866;50.748;12.630;2023-09-19T10:09:22;20.80;14.90
26107;DHT22;13866;50.748;12.630;2023-09-19T10:12:03;20.90;15.20
26107;DHT22;13866;50.748;12.630;2023-09-19T10:14:34;20.80;14.30
26107;DHT22;13866;50.748;12.630;2023-09-19T10:17:05;20.70;15.30
26107;DHT22;13866;50.748;12.630;2023-09-19T10:19:37;20.90;16.60
26107;DHT22;13866;50.748;12.630;2023-09-19T10:22:04;21.00;13.40
26107;DHT22;13866;50.748;12.630;2023-09-19T10:24:33;21.20;11.10
26107;DHT22;13866;50.748;12.630;2023-09-19T10:27:01;21.10;11.80
26107;DHT22;13866;50.748;12.630;2023-09-19T10:29:29;21.20;11.90
26107;DHT22;13866;50.748;12.630;2023-09-19T10:31:58;21.40;9.20
26107;DHT22;13866;50.748;12.630;2023-09-19T10:34:25;21.40;8.90
26107;DHT22;13866;50.748;12.630;2023-09-19T10:36:52;21.50;8.50
26107;DHT22;13866;50.748;12.630;2023-09-19T10:39:19;21.30;6.10
26107;DHT22;13866;50.748;12.630;2023-09-19T10:41:51;21.10;3.30
26107;DHT22;13866;50.748;12.630;2023-09-19T10:44:25;20.90;4.10
26107;DHT22;13866;50.748;12.630;2023-09-19T10:46:51;21.10;5.90
26107;DHT22;13866;50.748;12.630;2023-09-19T10:49:18;21.30;6.80
26107;DHT22;13866;50.748;12.630;2023-09-19T10:51:44;21.40;4.50
26107;DHT22;13866;50.748;12.630;2023-09-19T10:54:14;21.10;5.70
26107;DHT22;13866;50.748;12.630;2023-09-19T10:56:47;21.10;7.10
26107;DHT22;13866;50.748;12.630;2023-09-19T10:59:18;20.80;5.40
26107;DHT22;13866;50.748;12.630;2023-09-19T11:01:55;20.80;6.60
26107;DHT22;13866;50.748;12.630;2023-09-19T11:04:31;20.60;7.20
26107;DHT22;13866;50.748;12.630;2023-09-19T11:07:07;20.40;7.60
26107;DHT22;13866;50.748;12.630;2023-09-19T11:15:01;20.50;8.90
26107;DHT22;13866;50.748;12.630;2023-09-19T11:17:34;20.70;9.00
26107;DHT22;13866;50.748;12.630;2023-09-19T11:30:49;21.30;1.00
26107;DHT22;13866;50.748;12.630;2023-09-19T11:33:29;21.30;2.40
26107;DHT22;13866;50.748;12.630;2023-09-19T11:36:11;21.50;1.00
26107;DHT22;13866;50.748;12.630;2023-09-19T11:38:57;21.40;1.00
26107;DHT22;13866;50.748;12.630;2023-09-19T11:49:18;21.60;1.00
26107;DHT22;13866;50.748;12.630;2023-09-19T11:51:47;21.50;1.00
26107;DHT22;13866;50.748;12.630;2023-09-19T11:54:16;21.40;1.00
26107;DHT22;13866;50.748;12.630;2023-09-19T11:56:45;21.40;1.00
26107;DHT22;13866;50.748;12.630;2023-09-19T11:59:11;21.10;1.00
26107;DHT22;13866;50.748;12.630;2023-09-19T12:01:39;21.20;1.00
26107;DHT22;13866;50.748;12.630;2023-09-19T12:04:11;21.00;1.00
26107;DHT22;13866;50.748;12.630;2023-09-19T12:06:37;20.90;1.00
26107;DHT22;13866;50.748;12.630;2023-09-19T12:09:12;20.90;1.00
26107;DHT22;13866;50.748;12.630;2023-09-19T12:11:42;20.80;2.00
26107;DHT22;13866;50.748;12.630;2023-09-19T12:14:09;20.70;2.70
26107;DHT22;13866;50.748;12.630;2023-09-19T12:16:35;20.80;3.80
26107;DHT22;13866;50.748;12.630;2023-09-19T12:19:21;20.70;2.80
26107;DHT22;13866;50.748;12.630;2023-09-19T12:22:00;20.80;3.80
26107;DHT22;13866;50.748;12.630;2023-09-19T12:24:30;21.00;4.80
26107;DHT22;13866;50.748;12.630;2023-09-19T12:27:03;21.40;2.60
26107;DHT22;13866;50.748;12.630;2023-09-19T12:29:45;21.60;2.10
26107;DHT22;13866;50.748;12.630;2023-09-19T12:32:11;21.70;1.00
26107;DHT22;13866;50.748;12.630;2023-09-19T12:34:38;21.40;1.00
26107;DHT22;13866;50.748;12.630;2023-09-19T12:37:14;21.60;1.00
26107;DHT22;13866;50.748;12.630;2023-09-19T12:39:50;21.80;1.00
26107;DHT22;13866;50.748;12.630;2023-09-19T12:42:20;22.20;1.00
26107;DHT22;13866;50.748;12.630;2023-09-19T12:44:48;21.80;1.00
26107;DHT22;13866;50.748;12.630;2023-09-19T12:47:16;22.00;1.00
26107;DHT22;13866;50.748;12.630;2023-09-19T12:50:11;22.20;1.00
26107;DHT22;13866;50.748;12.630;2023-09-19T12:52:47;22.30;1.00
26107;DHT22;13866;50.748;12.630;2023-09-19T12:58:07;21.90;1.00
26107;DHT22;13866;50.748;12.630;2023-09-19T13:00:39;21.90;1.00
26107;DHT22;13866;50.748;12.630;2023-09-19T13:03:19;22.00;1.00
26107;DHT22;13866;50.748;12.630;2023-09-19T13:05:55;22.10;1.00
26107;DHT22;13866;50.748;12.630;2023-09-19T13:08:34;22.20;1.00
26107;DHT22;13866;50.748;12.630;2023-09-19T13:11:04;22.30;1.00
26107;DHT22;13866;50.748;12.630;2023-09-19T13:13:35;22.20;1.00
26107;DHT22;13866;50.748;12.630;2023-09-19T13:16:03;22.30;1.00
26107;DHT22;13866;50.748;12.630;2023-09-19T13:18:29;22.20;1.00
26107;DHT22;13866;50.748;12.630;2023-09-19T13:21:12;22.20;1.00
26107;DHT22;13866;50.748;12.630;2023-09-19T13:23:42;21.80;1.00
26107;DHT22;13866;50.748;12.630;2023-09-19T13:26:09;21.30;1.00
26107;DHT22;13866;50.748;12.630;2023-09-19T13:28:37;21.00;1.00
26107;DHT22;13866;50.748;12.630;2023-09-19T13:31:02;21.10;1.00
26107;DHT22;13866;50.748;12.630;2023-09-19T13:33:28;21.20;1.00
26107;DHT22;13866;50.748;12.630;2023-09-19T13:35:53;21.20;1.00
26107;DHT22;13866;50.748;12.630;2023-09-19T13:38:19;21.10;1.00
26107;DHT22;13866;50.748;12.630;2023-09-19T13:40:47;21.30;1.00
26107;DHT22;13866;50.748;12.630;2023-09-19T13:43:13;21.30;1.00
26107;DHT22;13866;50.748;12.630;2023-09-19T13:45:38;21.50;1.00
26107;DHT22;13866;50.748;12.630;2023-09-19T13:48:07;21.80;1.00
26107;DHT22;13866;50.748;12.630;2023-09-19T13:50:34;21.60;1.00
26107;DHT22;13866;50.748;12.630;2023-09-19T13:52:59;21.70;1.00
26107;DHT22;13866;50.748;12.630;2023-09-19T13:55:25;21.80;1.00
26107;DHT22;13866;50.748;12.630;2023-09-19T13:57:51;21.90;1.00
26107;DHT22;13866;50.748;12.630;2023-09-19T14:00:20;22.10;1.00
26107;DHT22;13866;50.748;12.630;2023-09-19T14:02:45;21.90;1.00
26107;DHT22;13866;50.748;12.630;2023-09-19T14:05:12;21.50;1.00
26107;DHT22;13866;50.748;12.630;2023-09-19T14:07:44;21.30;1.00
26107;DHT22;13866;50.748;12.630;2023-09-19T14:10:11;21.30;1.00
26107;DHT22;13866;50.748;12.630;2023-09-19T14:12:38;21.40;1.00
26107;DHT22;13866;50.748;12.630;2023-09-19T14:15:06;21.30;1.00
26107;DHT22;13866;50.748;12.630;2023-09-19T14:17:32;21.30;1.00
26107;DHT22;13866;50.748;12.630;2023-09-19T14:19:58;21.20;1.00
26107;DHT22;13866;50.748;12.630;2023-09-19T14:22:23;21.20;1.00
26107;DHT22;13866;50.748;12.630;2023-09-19T14:24:49;21.20;1.00
26107;DHT22;13866;50.748;12.630;2023-09-19T14:27:14;21.10;1.00
26107;DHT22;13866;50.748;12.630;2023-09-19T14:29:40;21.10;1.00
26107;DHT22;13866;50.748;12.630;2023-09-19T14:32:06;21.10;1.00
26107;DHT22;13866;50.748;12.630;2023-09-19T14:34:32;21.00;1.00
26107;DHT22;13866;50.748;12.630;2023-09-19T14:36:58;21.10;1.00
26107;DHT22;13866;50.748;12.630;2023-09-19T14:39:24;21.20;1.00
26107;DHT22;13866;50.748;12.630;2023-09-19T14:41:50;21.00;1.00
26107;DHT22;13866;50.748;12.630;2023-09-19T14:44:15;21.00;1.00
26107;DHT22;13866;50.748;12.630;2023-09-19T14:46:42;21.00;1.00
26107;DHT22;13866;50.748;12.630;2023-09-19T14:49:09;20.70;1.00
26107;DHT22;13866;50.748;12.630;2023-09-19T14:51:36;20.50;1.00
26107;DHT22;13866;50.748;12.630;2023-09-19T14:54:03;20.60;1.00
26107;DHT22;13866;50.748;12.630;2023-09-19T14:56:29;20.80;1.00
26107;DHT22;13866;50.748;12.630;2023-09-19T14:58:56;20.70;1.00
26107;DHT22;13866;50.748;12.630;2023-09-19T15:01:22;20.50;1.00
26107;DHT22;13866;50.748;12.630;2023-09-19T15:03:48;20.40;1.00
26107;DHT22;13866;50.748;12.630;2023-09-19T15:06:15;20.30;1.00
26107;DHT22;13866;50.748;12.630;2023-09-19T15:08:43;20.40;1.00
26107;DHT22;13866;50.748;12.630;2023-09-19T15:11:13;20.30;1.00
26107;DHT22;13866;50.748;12.630;2023-09-19T15:13:41;20.30;1.00
26107;DHT22;13866;50.748;12.630;2023-09-19T15:16:08;20.20;1.00
26107;DHT22;13866;50.748;12.630;2023-09-19T15:18:38;20.20;1.00
26107;DHT22;13866;50.748;12.630;2023-09-19T15:21:05;20.20;1.00
26107;DHT22;13866;50.748;12.630;2023-09-19T15:23:34;20.20;1.00
26107;DHT22;13866;50.748;12.630;2023-09-19T15:26:00;20.20;1.00
26107;DHT22;13866;50.748;12.630;2023-09-19T15:28:29;20.10;1.00
26107;DHT22;13866;50.748;12.630;2023-09-19T15:31:05;20.10;1.00
26107;DHT22;13866;50.748;12.630;2023-09-19T15:33:31;20.10;1.00
26107;DHT22;13866;50.748;12.630;2023-09-19T15:36:04;20.00;1.00
26107;DHT22;13866;50.748;12.630;2023-09-19T15:38:30;19.90;1.00
26107;DHT22;13866;50.748;12.630;2023-09-19T15:41:00;19.90;1.00
26107;DHT22;13866;50.748;12.630;2023-09-19T15:43:25;19.80;1.00
26107;DHT22;13866;50.748;12.630;2023-09-19T15:45:51;19.80;1.00
26107;DHT22;13866;50.748;12.630;2023-09-19T15:48:17;19.70;1.00
26107;DHT22;13866;50.748;12.630;2023-09-19T15:50:43;19.70;1.00
26107;DHT22;13866;50.748;12.630;2023-09-19T15:53:10;19.60;1.00
26107;DHT22;13866;50.748;12.630;2023-09-19T15:55:39;19.70;1.00
26107;DHT22;13866;50.748;12.630;2023-09-19T15:58:05;19.70;1.00
26107;DHT22;13866;50.748;12.630;2023-09-19T16:00:32;19.70;1.00
26107;DHT22;13866;50.748;12.630;2023-09-19T16:03:00;19.70;1.00